Impacts TAF Board INFO
FOR SITUATIONAL AWARENESS. NOT TO BE USED FOR FLIGHT PLANNING PURPOSES.
IDs:

KPIT - Pittsburgh Intl, PA, US

Issued at 0257 UTC 22 Apr 2018
Updated at 0433 UTC 22 Apr 2018
Potential Impact None Slight Moderate High
Time0351Z 22/05Z 22/06Z 22/07Z 22/08Z 22/09Z 22/10Z 22/11Z 22/12Z 22/13Z 22/14Z 22/15Z 22/16Z 22/17Z>>
Type OBS PRVL PRVL PRVL PRVL PRVL PRVL PRVL PRVL PRVL PRVL PRVL PRVL PRVL
VIS 10 >6 >6 >6 >6 >6 >6 >6 >6 >6 >6 >6 >6 >6
CIG 110 120 120 120 120 120 120 120 120 120 120 -- -- --
Cover OVC BKN BKN BKN BKN BKN BKN BKN BKN BKN BKN SCT SCT SCT
FltCat VFR VFR VFR VFR VFR VFR VFR VFR VFR VFR VFR VFR VFR VFR
WX -- -- -- -- -- -- -- -- -- -- -- -- -- --
WDir 30 30 30 30 30 30 30 30 30 30 30 70 70 70
WSpd 6 5 5 5 5 5 5 5 5 5 5 8 8 8
WGst -- -- -- -- -- -- -- -- -- -- -- -- -- --

Raw TAF
KPIT 220257Z 2203/2306 03005KT P6SM BKN120
  FM221500 07008KT P6SM SCT250


Raw METAR
KPIT 220351Z 03006KT 10SM OVC110 10/M02 A3035 RMK AO2 SLP290 T01001022
KPIT 220251Z 01006KT 10SM SCT120 BKN140 OVC250 11/M05 A3036 RMK AO2 SLP293 T01061050 53006
KPIT 220151Z 33004KT 10SM BKN140 11/M04 A3035 RMK AO2 SLP290 T01111044

METAR Board
Radar Display
Forecast Discussion

FOR SITUATIONAL AWARENESS. NOT TO BE USED FOR FLIGHT PLANNING PURPOSES.